Time;durP1;ratioP1;P1;durP2;ratioP2;P2;SDS_P1;SDS_P2;PMS_P1;PMS_P2;Temp;Humidity;BMP_temperature;BMP_pressure;BME280_temperature;BME280_humidity;BME280_pressure;Samples;Min_cycle;Max_cycle;Signal;HPM_P1;HPM_P2
2021/12/09 00:02:21;;;;;;;68.77;29.40;;;-1.00;99.90;;;;;;5162695;28;20665;-51
2021/12/09 00:04:54;;;;;;;72.87;32.40;;;-1.00;99.90;;;;;;5162464;28;20432;-50
2021/12/09 00:07:25;;;;;;;75.83;31.17;;;-1.00;99.90;;;;;;5157390;28;20495;-50
2021/12/09 00:09:56;;;;;;;72.67;31.33;;;-1.00;99.90;;;;;;5161491;28;20837;-49
2021/12/09 00:12:27;;;;;;;76.90;30.03;;;-1.00;99.90;;;;;;5162091;28;20606;-48
2021/12/09 00:14:58;;;;;;;68.17;32.00;;;-0.90;99.90;;;;;;5159301;28;20192;-49
2021/12/09 00:17:29;;;;;;;71.87;31.20;;;-0.90;99.90;;;;;;5178101;28;20431;-49
2021/12/09 00:20:00;;;;;;;73.83;32.63;;;-0.90;99.90;;;;;;5160848;28;20617;-50
2021/12/09 00:22:31;;;;;;;84.20;36.07;;;-1.00;99.90;;;;;;5159365;28;20185;-49
2021/12/09 00:25:01;;;;;;;94.87;35.33;;;-1.00;99.90;;;;;;5161402;28;20428;-49
2021/12/09 00:27:32;;;;;;;81.00;34.77;;;-1.00;99.90;;;;;;5161335;28;20280;-49
2021/12/09 00:30:04;;;;;;;88.17;33.97;;;-1.10;99.90;;;;;;5161127;28;20196;-48
2021/12/09 00:32:36;;;;;;;81.10;33.77;;;-1.10;99.90;;;;;;5162246;28;20165;-51
2021/12/09 00:35:08;;;;;;;77.10;33.30;;;-1.10;99.90;;;;;;5161146;28;20506;-47
2021/12/09 00:37:50;;;;;;;89.63;35.23;;;-1.20;99.90;;;;;;5160114;28;20464;-50
2021/12/09 00:40:21;;;;;;;86.40;36.10;;;-1.10;99.90;;;;;;5158259;28;20464;-50
2021/12/09 00:42:52;;;;;;;85.97;33.20;;;-1.10;99.90;;;;;;5160321;28;20478;-48
2021/12/09 00:45:22;;;;;;;93.13;35.60;;;-1.10;99.90;;;;;;5161561;28;20275;-48
2021/12/09 00:47:53;;;;;;;88.50;36.53;;;-1.20;99.90;;;;;;5161994;28;20216;-50
2021/12/09 00:50:24;;;;;;;87.47;36.60;;;-1.20;99.90;;;;;;5160049;28;20215;-48
2021/12/09 00:52:54;;;;;;;86.17;35.53;;;-1.20;99.90;;;;;;5161043;28;20184;-48
2021/12/09 00:55:25;;;;;;;95.63;36.37;;;-1.10;99.90;;;;;;5158216;28;20447;-48
2021/12/09 00:57:55;;;;;;;84.47;34.23;;;-1.10;99.90;;;;;;5159862;28;20319;-49
2021/12/09 01:00:26;;;;;;;86.13;34.30;;;-1.20;99.90;;;;;;5161018;28;20331;-49
2021/12/09 01:02:58;;;;;;;102.83;34.73;;;-1.20;99.90;;;;;;5158418;28;20184;-49
2021/12/09 01:05:29;;;;;;;99.57;36.53;;;-1.20;99.90;;;;;;5156520;28;20323;-49
2021/12/09 01:08:00;;;;;;;76.77;35.23;;;-1.20;99.90;;;;;;5156317;28;20472;-49
2021/12/09 01:10:31;;;;;;;93.87;37.07;;;-1.20;99.90;;;;;;5159424;28;20672;-49
2021/12/09 01:13:03;;;;;;;90.07;37.10;;;-1.30;99.90;;;;;;5160849;28;20265;-50
2021/12/09 01:15:33;;;;;;;99.17;35.57;;;-1.20;99.90;;;;;;5158379;28;20443;-49
2021/12/09 01:18:05;;;;;;;93.93;37.00;;;-1.20;99.90;;;;;;5158839;28;20851;-49
2021/12/09 01:20:35;;;;;;;87.53;37.93;;;-1.30;99.90;;;;;;5175676;28;20208;-47
2021/12/09 01:23:07;;;;;;;96.37;38.43;;;-1.30;99.90;;;;;;5159273;28;20429;-48
2021/12/09 01:25:38;;;;;;;98.83;36.00;;;-1.30;99.90;;;;;;5158706;28;20175;-49
2021/12/09 01:28:21;;;;;;;90.67;37.53;;;-1.30;99.90;;;;;;5158439;28;20468;-47
2021/12/09 01:31:00;;;;;;;91.00;35.83;;;-1.30;99.90;;;;;;5159601;28;20457;-50
2021/12/09 01:33:32;;;;;;;101.53;41.67;;;-1.30;99.90;;;;;;5159606;28;20436;-49
2021/12/09 01:36:04;;;;;;;90.50;37.63;;;-1.40;99.90;;;;;;5159531;28;20447;-51
2021/12/09 01:38:34;;;;;;;89.30;37.43;;;-1.30;99.90;;;;;;5174369;28;20452;-50
2021/12/09 01:41:05;;;;;;;93.43;38.00;;;-1.30;99.90;;;;;;5159574;28;20478;-50
2021/12/09 01:43:37;;;;;;;102.50;39.10;;;-1.30;99.90;;;;;;5159899;28;20200;-51
2021/12/09 01:46:10;;;;;;;95.30;37.70;;;-1.30;99.90;;;;;;5158608;28;20233;-51
2021/12/09 01:48:44;;;;;;;93.03;36.50;;;-1.30;99.90;;;;;;5158783;28;20848;-49
2021/12/09 01:51:16;;;;;;;92.43;36.10;;;-1.40;99.90;;;;;;5155561;28;20460;-51
2021/12/09 01:53:48;;;;;;;95.83;37.20;;;-1.30;99.90;;;;;;5159578;28;20861;-49
2021/12/09 01:56:21;;;;;;;95.23;39.10;;;-1.30;99.90;;;;;;5153305;28;20469;-49
2021/12/09 01:58:56;;;;;;;91.20;38.53;;;-1.30;99.90;;;;;;5156948;28;20431;-49
2021/12/09 02:01:27;;;;;;;97.53;38.00;;;-1.20;99.90;;;;;;5158950;28;20463;-49
2021/12/09 02:03:58;;;;;;;93.37;37.53;;;-1.30;99.90;;;;;;5159884;28;20439;-50
2021/12/09 02:06:29;;;;;;;91.10;35.67;;;-1.30;99.90;;;;;;5149803;28;20468;-48
2021/12/09 02:09:00;;;;;;;91.87;35.77;;;-1.30;99.90;;;;;;5158799;28;20856;-49
2021/12/09 02:11:31;;;;;;;84.60;35.40;;;-1.30;99.90;;;;;;5155676;28;20867;-50
2021/12/09 02:14:03;;;;;;;92.00;37.10;;;-1.30;99.90;;;;;;5158126;28;20482;-49
2021/12/09 02:16:34;;;;;;;95.73;36.47;;;-1.30;99.90;;;;;;5170266;28;20184;-50
2021/12/09 02:19:08;;;;;;;96.97;35.93;;;-1.20;99.90;;;;;;5161062;28;20454;-49
2021/12/09 02:21:39;;;;;;;96.03;37.20;;;-1.20;99.90;;;;;;5157960;28;20685;-48
2021/12/09 02:24:14;;;;;;;94.40;37.93;;;-1.30;99.90;;;;;;5158601;28;20441;-49
2021/12/09 02:26:49;;;;;;;87.87;38.03;;;-1.30;99.90;;;;;;5156787;28;20992;-50
2021/12/09 02:29:20;;;;;;;90.27;35.97;;;-1.30;99.90;;;;;;5161034;28;20431;-50
2021/12/09 02:31:56;;;;;;;101.20;40.70;;;-1.30;99.90;;;;;;5160019;28;20470;-48
2021/12/09 02:34:27;;;;;;;87.73;37.00;;;-1.40;99.90;;;;;;5163326;28;20206;-49
2021/12/09 02:36:58;;;;;;;92.17;38.70;;;-1.30;99.90;;;;;;5162655;28;20447;-49
2021/12/09 02:39:28;;;;;;;96.77;36.87;;;-1.30;99.90;;;;;;5160405;28;20447;-50
2021/12/09 02:41:59;;;;;;;95.33;38.77;;;-1.40;99.90;;;;;;5161163;28;20227;-49
2021/12/09 02:44:29;;;;;;;92.27;37.70;;;-1.40;99.90;;;;;;5165374;28;20185;-49
2021/12/09 02:47:00;;;;;;;99.97;37.90;;;-1.40;99.90;;;;;;5153187;23;20725;-48
2021/12/09 02:49:32;;;;;;;101.17;39.60;;;-1.40;99.90;;;;;;5140800;28;20915;-49
2021/12/09 02:52:04;;;;;;;108.50;40.40;;;-1.40;99.90;;;;;;5143967;28;20198;-49
2021/12/09 02:54:34;;;;;;;91.57;37.70;;;-1.40;99.90;;;;;;5142450;28;20433;-50
2021/12/09 02:57:07;;;;;;;86.33;37.30;;;-1.40;99.90;;;;;;5135830;28;20466;-49
2021/12/09 02:59:38;;;;;;;98.40;37.77;;;-1.40;99.90;;;;;;5153462;28;20265;-49
2021/12/09 03:02:10;;;;;;;99.50;40.63;;;-1.40;99.90;;;;;;5135311;28;20453;-50
2021/12/09 03:04:51;;;;;;;91.53;36.87;;;-1.30;99.90;;;;;;5153183;28;20805;-50
2021/12/09 03:07:28;;;;;;;106.17;39.40;;;-1.30;99.90;;;;;;5142858;28;20500;-49
2021/12/09 03:10:04;;;;;;;91.60;38.50;;;-1.30;99.90;;;;;;5136625;28;20427;-49
2021/12/09 03:12:40;;;;;;;108.53;39.63;;;-1.30;99.90;;;;;;5125491;28;20971;-48
2021/12/09 03:15:11;;;;;;;105.27;39.43;;;-1.30;99.90;;;;;;5138758;28;20474;-48
2021/12/09 03:17:43;;;;;;;122.80;42.97;;;-1.40;99.90;;;;;;5136252;28;20573;-49
2021/12/09 03:20:16;;;;;;;87.80;36.40;;;-1.40;99.90;;;;;;5132456;28;20209;-50
2021/12/09 03:22:49;;;;;;;106.13;39.93;;;-1.40;99.90;;;;;;5133729;28;20940;-49
2021/12/09 03:25:21;;;;;;;99.10;37.80;;;-1.40;99.90;;;;;;5111829;28;20468;-49
2021/12/09 03:27:51;;;;;;;114.20;40.77;;;-1.40;99.90;;;;;;5131561;28;20465;-49
2021/12/09 03:30:24;;;;;;;102.03;40.83;;;-1.40;99.90;;;;;;5141097;28;20499;-49
2021/12/09 03:32:56;;;;;;;104.97;38.57;;;-1.40;99.90;;;;;;5137893;28;20170;-48
2021/12/09 03:35:27;;;;;;;115.03;40.50;;;-1.40;99.90;;;;;;5133035;28;20548;-49
2021/12/09 03:37:58;;;;;;;98.93;39.87;;;-1.40;99.90;;;;;;5138966;28;20850;-49
2021/12/09 03:40:29;;;;;;;91.97;36.83;;;-1.40;99.90;;;;;;5128907;28;20196;-49
2021/12/09 03:42:59;;;;;;;106.13;40.00;;;-1.40;99.90;;;;;;5126383;28;20544;-49
2021/12/09 03:45:30;;;;;;;102.87;39.43;;;-1.30;99.90;;;;;;5140940;28;20229;-49
2021/12/09 03:48:02;;;;;;;86.73;34.63;;;-1.40;99.90;;;;;;5136822;28;20700;-49
2021/12/09 03:50:33;;;;;;;95.30;40.87;;;-1.40;99.90;;;;;;5127925;28;20289;-50
2021/12/09 03:53:04;;;;;;;98.97;40.13;;;-1.30;99.90;;;;;;5134142;28;20512;-50
2021/12/09 03:55:34;;;;;;;89.00;39.10;;;-1.30;99.90;;;;;;5133193;28;20201;-49
2021/12/09 03:58:05;;;;;;;96.67;38.37;;;-1.30;99.90;;;;;;5132794;28;20197;-49
2021/12/09 04:00:36;;;;;;;92.40;37.53;;;-1.20;99.90;;;;;;5123186;28;20225;-50
2021/12/09 04:03:08;;;;;;;92.23;40.37;;;-1.30;99.90;;;;;;5128921;28;20442;-49
2021/12/09 04:05:38;;;;;;;100.47;39.23;;;-1.30;99.90;;;;;;5138645;28;20539;-50
2021/12/09 04:08:09;;;;;;;98.07;38.97;;;-1.30;99.90;;;;;;5131152;28;20579;-49
2021/12/09 04:10:40;;;;;;;87.30;36.40;;;-1.30;99.90;;;;;;5132953;28;20205;-49
2021/12/09 04:13:11;;;;;;;90.20;39.00;;;-1.30;99.90;;;;;;5132959;28;20321;-49
2021/12/09 04:15:42;;;;;;;110.37;40.17;;;-1.30;99.90;;;;;;5134439;28;20729;-50
2021/12/09 04:18:12;;;;;;;93.10;38.23;;;-1.30;99.90;;;;;;5133292;28;20496;-50
2021/12/09 04:20:43;;;;;;;96.83;37.87;;;-1.30;99.90;;;;;;5132226;28;20449;-49
2021/12/09 04:23:13;;;;;;;92.00;38.13;;;-1.40;99.90;;;;;;5129785;28;20182;-49
2021/12/09 04:25:44;;;;;;;104.33;39.40;;;-1.40;99.90;;;;;;5133225;28;20198;-49
2021/12/09 04:28:15;;;;;;;94.40;37.87;;;-1.40;99.90;;;;;;5130171;28;20197;-49
2021/12/09 04:30:46;;;;;;;98.07;40.83;;;-1.30;99.90;;;;;;5135028;28;20232;-50
2021/12/09 04:33:17;;;;;;;89.13;37.30;;;-1.30;99.90;;;;;;5135748;28;20173;-50
2021/12/09 04:35:47;;;;;;;96.77;39.40;;;-1.30;99.90;;;;;;5134344;28;20491;-50
2021/12/09 04:38:18;;;;;;;96.27;38.43;;;-1.30;99.90;;;;;;5126309;28;20591;-49
2021/12/09 04:40:48;;;;;;;92.50;38.90;;;-1.30;99.90;;;;;;5145046;28;20574;-49
2021/12/09 04:43:19;;;;;;;93.13;38.33;;;-1.30;99.90;;;;;;5131019;28;20261;-49
2021/12/09 04:45:50;;;;;;;90.17;36.00;;;-1.30;99.90;;;;;;5134775;28;20591;-49
2021/12/09 04:48:20;;;;;;;96.53;37.33;;;-1.30;99.90;;;;;;5132880;28;20643;-50
2021/12/09 04:50:51;;;;;;;86.00;37.03;;;-1.30;99.90;;;;;;5135992;28;20188;-49
2021/12/09 04:53:21;;;;;;;81.73;36.43;;;-1.30;99.90;;;;;;5133559;28;20524;-50
2021/12/09 04:55:52;;;;;;;98.70;36.30;;;-1.30;99.90;;;;;;5131241;28;20754;-50
2021/12/09 04:58:23;;;;;;;92.47;37.23;;;-1.30;99.90;;;;;;5145129;28;20189;-50
2021/12/09 05:00:56;;;;;;;86.57;38.03;;;-1.30;99.90;;;;;;5129692;28;20210;-49
2021/12/09 05:03:27;;;;;;;83.83;35.50;;;-1.30;99.90;;;;;;5133363;28;20956;-49
2021/12/09 05:05:58;;;;;;;101.27;38.63;;;-1.30;99.90;;;;;;5129730;28;20454;-49
2021/12/09 05:08:32;;;;;;;91.33;36.10;;;-1.30;99.90;;;;;;5132217;28;20185;-49
2021/12/09 05:11:13;;;;;;;83.43;38.03;;;-1.30;99.90;;;;;;5124235;28;20451;-48
2021/12/09 05:13:43;;;;;;;96.67;37.23;;;-1.40;99.90;;;;;;5132337;28;20444;-48
2021/12/09 05:16:14;;;;;;;84.27;35.33;;;-1.30;99.90;;;;;;5131120;28;20460;-49
2021/12/09 05:18:45;;;;;;;96.23;37.60;;;-1.40;99.90;;;;;;5149938;28;20181;-48
2021/12/09 05:21:17;;;;;;;91.67;35.07;;;-1.30;99.90;;;;;;5125996;28;20182;-48
2021/12/09 05:23:47;;;;;;;79.00;35.13;;;-1.30;99.90;;;;;;5109895;28;20855;-49
2021/12/09 05:26:20;;;;;;;85.37;37.20;;;-1.30;99.90;;;;;;5134088;28;20456;-49
2021/12/09 05:28:56;;;;;;;80.33;34.80;;;-1.30;99.90;;;;;;5127561;28;20249;-49
2021/12/09 05:34:18;;;;;;;86.80;36.77;;;-1.30;99.90;;;;;;5128835;28;20804;-49
2021/12/09 05:36:49;;;;;;;111.83;38.63;;;-1.30;99.90;;;;;;5127004;28;20470;-55
2021/12/09 05:39:20;;;;;;;89.67;34.80;;;-1.30;99.90;;;;;;5124593;28;20186;-49
2021/12/09 05:41:52;;;;;;;104.27;39.40;;;-1.30;99.90;;;;;;5133790;28;20466;-49
2021/12/09 05:44:23;;;;;;;101.03;38.43;;;-1.30;99.90;;;;;;5131090;28;20178;-49
2021/12/09 05:46:54;;;;;;;94.50;36.87;;;-1.30;99.90;;;;;;5130219;28;20487;-49
2021/12/09 05:49:24;;;;;;;97.47;37.80;;;-1.30;99.90;;;;;;5126742;28;20210;-50
2021/12/09 05:51:55;;;;;;;82.10;35.87;;;-1.30;99.90;;;;;;5130335;28;20197;-48
2021/12/09 05:54:25;;;;;;;96.60;38.73;;;-1.30;99.90;;;;;;5130911;28;20192;-48
2021/12/09 05:56:57;;;;;;;123.87;39.63;;;-1.40;99.90;;;;;;5126712;28;20274;-49
2021/12/09 05:59:27;;;;;;;103.73;39.80;;;-1.40;99.90;;;;;;5129806;28;20194;-49
2021/12/09 06:01:58;;;;;;;99.30;40.10;;;-1.40;99.90;;;;;;5131040;28;21051;-50
2021/12/09 06:04:29;;;;;;;93.90;36.93;;;-1.40;99.90;;;;;;5135186;28;20266;-49
2021/12/09 06:06:59;;;;;;;102.07;38.60;;;-1.40;99.90;;;;;;5131502;28;20213;-49
2021/12/09 06:09:30;;;;;;;98.03;39.27;;;-1.40;99.90;;;;;;5130081;28;20214;-49
2021/12/09 06:12:01;;;;;;;89.63;37.20;;;-1.30;99.90;;;;;;5134077;28;20640;-50
2021/12/09 06:14:32;;;;;;;106.23;39.23;;;-1.40;99.90;;;;;;5133311;28;20441;-50
2021/12/09 06:17:03;;;;;;;101.37;38.83;;;-1.40;99.90;;;;;;5126272;28;20496;-49
2021/12/09 06:19:33;;;;;;;109.87;37.13;;;-1.40;99.90;;;;;;5125707;28;20205;-50
2021/12/09 06:22:04;;;;;;;118.43;37.97;;;-1.40;99.90;;;;;;5130153;28;20273;-50
2021/12/09 06:24:35;;;;;;;103.10;38.90;;;-1.30;99.90;;;;;;5124899;28;20225;-50
2021/12/09 06:27:06;;;;;;;105.80;38.33;;;-1.40;99.90;;;;;;5131522;28;20210;-49
2021/12/09 06:29:37;;;;;;;93.23;36.30;;;-1.40;99.90;;;;;;5129976;28;20201;-49
2021/12/09 06:32:08;;;;;;;88.33;35.90;;;-1.30;99.90;;;;;;5132899;28;20516;-49
2021/12/09 06:34:39;;;;;;;94.63;39.33;;;-1.30;99.90;;;;;;5126975;28;20316;-49
2021/12/09 06:37:09;;;;;;;99.50;36.67;;;-1.30;99.90;;;;;;5128535;28;20559;-49
2021/12/09 06:39:40;;;;;;;94.87;39.10;;;-1.30;99.90;;;;;;5129208;28;20197;-50
2021/12/09 06:42:11;;;;;;;101.30;39.93;;;-1.30;99.90;;;;;;5125829;28;20194;-50
2021/12/09 06:44:44;;;;;;;110.20;41.17;;;-1.30;99.90;;;;;;5130846;28;20195;-52
2021/12/09 06:47:15;;;;;;;106.67;41.17;;;-1.30;99.90;;;;;;5128423;28;20217;-50
2021/12/09 06:49:45;;;;;;;97.50;38.10;;;-1.30;99.90;;;;;;5132359;28;20432;-50
2021/12/09 06:52:17;;;;;;;125.60;43.40;;;-1.40;99.90;;;;;;5120311;28;20185;-49
2021/12/09 06:54:47;;;;;;;111.17;40.93;;;-1.40;99.90;;;;;;5125456;28;20191;-51
2021/12/09 06:57:18;;;;;;;115.70;41.73;;;-1.40;99.90;;;;;;5133026;28;20448;-50
2021/12/09 06:59:48;;;;;;;106.43;40.50;;;-1.30;99.90;;;;;;5131670;28;20198;-51
2021/12/09 07:02:19;;;;;;;102.83;41.60;;;-1.30;99.90;;;;;;5128666;28;20301;-50
2021/12/09 07:04:49;;;;;;;121.63;46.83;;;-1.30;99.90;;;;;;5142011;28;20379;-49
2021/12/09 07:07:20;;;;;;;114.37;43.30;;;-1.40;99.90;;;;;;5136282;28;20229;-50
2021/12/09 07:09:50;;;;;;;115.73;41.73;;;-1.40;99.90;;;;;;5124250;28;20197;-49
2021/12/09 07:12:21;;;;;;;132.90;46.40;;;-1.50;99.90;;;;;;5130703;28;20178;-49
2021/12/09 07:14:51;;;;;;;117.40;43.43;;;-1.50;99.90;;;;;;5117783;28;20231;-49
2021/12/09 07:17:22;;;;;;;136.23;47.43;;;-1.50;99.90;;;;;;5129798;28;20209;-49
2021/12/09 07:19:52;;;;;;;122.57;44.97;;;-1.50;99.90;;;;;;5125990;28;20197;-50
2021/12/09 07:22:26;;;;;;;118.07;42.90;;;-1.50;99.90;;;;;;5143940;28;20190;-51
2021/12/09 07:24:57;;;;;;;134.87;46.83;;;-1.50;99.90;;;;;;5126810;28;20538;-50
2021/12/09 07:27:27;;;;;;;120.90;44.00;;;-1.60;99.90;;;;;;5119581;28;20472;-49
2021/12/09 07:29:58;;;;;;;148.43;48.53;;;-1.50;99.90;;;;;;5118486;28;20439;-49
2021/12/09 07:32:29;;;;;;;130.07;46.03;;;-1.50;99.90;;;;;;5140393;28;20240;-50
2021/12/09 07:35:00;;;;;;;124.10;44.80;;;-1.50;99.90;;;;;;5118894;28;20171;-49
2021/12/09 07:37:31;;;;;;;127.43;47.47;;;-1.50;99.90;;;;;;5123135;28;20209;-50
2021/12/09 07:40:01;;;;;;;126.30;43.70;;;-1.50;99.90;;;;;;5123714;28;20441;-50
2021/12/09 07:42:32;;;;;;;124.47;47.40;;;-1.50;99.90;;;;;;5130192;28;20612;-50
2021/12/09 07:45:08;;;;;;;126.23;43.43;;;-1.30;99.90;;;;;;5127962;28;20731;-50
2021/12/09 07:47:39;;;;;;;128.07;48.40;;;-1.40;99.90;;;;;;5124751;28;20205;-51
2021/12/09 07:50:14;;;;;;;123.13;44.77;;;-1.40;99.90;;;;;;5132462;28;20806;-49
2021/12/09 07:52:48;;;;;;;123.13;43.67;;;-1.40;99.90;;;;;;5120930;28;20453;-50
2021/12/09 07:55:20;;;;;;;136.83;44.50;;;-1.40;99.90;;;;;;5141513;28;20456;-50
2021/12/09 07:57:52;;;;;;;127.77;44.97;;;-1.40;99.90;;;;;;5128596;28;20438;-51
2021/12/09 08:00:28;;;;;;;127.20;45.27;;;-1.40;99.90;;;;;;5113281;28;20834;-50
2021/12/09 08:03:00;;;;;;;112.60;45.07;;;-1.40;99.90;;;;;;5124493;28;20436;-49
2021/12/09 08:05:40;;;;;;;121.77;44.70;;;-1.30;99.90;;;;;;5138731;28;20456;-50
2021/12/09 08:08:11;;;;;;;122.37;43.63;;;-1.30;99.90;;;;;;5119552;28;20520;-53
2021/12/09 08:10:42;;;;;;;143.97;48.60;;;-1.30;99.90;;;;;;5130576;28;20461;-53
2021/12/09 08:13:13;;;;;;;134.97;46.50;;;-1.40;99.90;;;;;;5120485;28;20986;-51
2021/12/09 08:15:49;;;;;;;128.17;47.43;;;-1.40;99.90;;;;;;5134703;28;20567;-49
2021/12/09 08:18:27;;;;;;;142.07;47.30;;;-1.30;99.90;;;;;;5120302;28;20452;-49
2021/12/09 08:21:00;;;;;;;134.57;45.17;;;-1.30;99.90;;;;;;5130736;28;20429;-48
2021/12/09 08:23:30;;;;;;;120.67;44.87;;;-1.40;99.90;;;;;;5130635;28;20433;-50
2021/12/09 08:26:01;;;;;;;128.70;49.00;;;-1.30;99.90;;;;;;5122385;28;20463;-51
2021/12/09 08:28:31;;;;;;;136.87;47.80;;;-1.30;99.90;;;;;;5133209;28;20657;-50
2021/12/09 08:31:02;;;;;;;134.43;48.73;;;-1.30;99.90;;;;;;5131582;28;20168;-51
2021/12/09 08:33:33;;;;;;;139.60;47.80;;;-1.30;99.90;;;;;;5125996;28;20189;-53
2021/12/09 08:36:03;;;;;;;123.63;47.77;;;-1.30;99.90;;;;;;5129360;28;20565;-49
2021/12/09 08:38:35;;;;;;;123.67;48.20;;;-1.40;99.90;;;;;;5131109;28;20174;-51
2021/12/09 08:41:07;;;;;;;131.03;47.70;;;-1.30;99.90;;;;;;5127769;28;20241;-50
2021/12/09 08:43:37;;;;;;;123.07;47.70;;;-1.40;99.90;;;;;;5127974;28;20425;-49
2021/12/09 08:46:08;;;;;;;127.40;48.20;;;-1.30;99.90;;;;;;5124791;28;20533;-50
2021/12/09 08:48:39;;;;;;;133.40;49.60;;;-1.30;99.90;;;;;;5128711;28;20179;-51
2021/12/09 08:51:10;;;;;;;133.17;47.87;;;-1.30;99.90;;;;;;5131700;28;20192;-50
2021/12/09 08:53:41;;;;;;;127.73;48.37;;;-1.30;99.90;;;;;;5128451;28;20182;-50
2021/12/09 08:56:11;;;;;;;128.60;50.13;;;-1.30;99.90;;;;;;5128638;28;20479;-51
2021/12/09 08:58:42;;;;;;;116.17;47.27;;;-1.30;99.90;;;;;;5127965;28;20186;-52
2021/12/09 09:01:15;;;;;;;131.10;45.67;;;-1.20;99.90;;;;;;5130334;28;20185;-51
2021/12/09 09:03:45;;;;;;;115.27;46.40;;;-1.20;99.90;;;;;;5132506;28;20189;-50
2021/12/09 09:06:16;;;;;;;127.23;47.37;;;-1.20;99.90;;;;;;5122957;28;21294;-51
2021/12/09 09:08:50;;;;;;;135.20;45.37;;;-1.20;99.90;;;;;;5126020;28;20564;-50
2021/12/09 09:11:21;;;;;;;104.70;45.43;;;-1.20;99.90;;;;;;5129608;28;20186;-49
2021/12/09 09:13:52;;;;;;;116.83;45.60;;;-1.20;99.90;;;;;;5141095;28;20444;-50
2021/12/09 09:16:23;;;;;;;118.80;47.37;;;-1.20;99.90;;;;;;5133250;28;20289;-50
2021/12/09 09:18:57;;;;;;;123.37;46.17;;;-1.20;99.90;;;;;;5128474;28;20478;-49
2021/12/09 09:21:28;;;;;;;147.87;50.17;;;-1.10;99.90;;;;;;5115649;28;20452;-50
2021/12/09 09:23:59;;;;;;;125.40;48.90;;;-1.00;99.90;;;;;;5126202;28;20452;-50
2021/12/09 09:26:33;;;;;;;129.67;48.47;;;-1.00;99.90;;;;;;5129574;28;20476;-50
2021/12/09 09:29:04;;;;;;;131.27;46.73;;;-0.90;99.90;;;;;;5127595;28;20189;-51
2021/12/09 09:31:36;;;;;;;129.20;46.57;;;-0.90;99.90;;;;;;5124075;28;20480;-51
2021/12/09 09:34:07;;;;;;;128.17;46.20;;;-0.90;99.90;;;;;;5125208;28;20437;-50
2021/12/09 09:36:39;;;;;;;143.50;49.10;;;-1.00;99.90;;;;;;5129234;28;20836;-52
2021/12/09 09:39:22;;;;;;;116.17;43.13;;;-1.00;99.90;;;;;;5120924;28;20466;-51
2021/12/09 09:42:56;;;;;;;118.00;45.67;;;-1.00;99.90;;;;;;5122870;28;20433;-51
2021/12/09 09:44:55;;;;;;;126.43;46.27;;;-0.90;99.90;;;;;;5123637;28;20943;-51
2021/12/09 09:47:27;;;;;;;111.63;44.00;;;-0.90;99.90;;;;;;5126612;28;20476;-50
2021/12/09 09:49:59;;;;;;;108.20;42.77;;;-0.90;99.90;;;;;;5129187;28;21243;-51
2021/12/09 09:52:30;;;;;;;118.53;45.10;;;-0.90;99.90;;;;;;5127479;28;20426;-52
2021/12/09 09:55:05;;;;;;;111.57;45.00;;;-0.90;99.90;;;;;;5141611;28;20921;-50
2021/12/09 09:57:37;;;;;;;101.87;43.13;;;-0.80;99.90;;;;;;5130610;28;20459;-50
2021/12/09 10:00:10;;;;;;;120.53;44.37;;;-0.60;99.90;;;;;;5127962;28;20504;-51
2021/12/09 10:02:42;;;;;;;102.73;42.27;;;-0.50;99.90;;;;;;5123863;28;20887;-48
2021/12/09 10:05:14;;;;;;;100.07;40.00;;;-0.40;99.90;;;;;;5125135;28;20662;-49
2021/12/09 10:07:45;;;;;;;91.40;39.37;;;-0.50;99.90;;;;;;5127455;28;20470;-48
2021/12/09 10:10:16;;;;;;;95.20;41.13;;;-0.40;99.90;;;;;;5124879;28;20451;-52
2021/12/09 10:13:07;;;;;;;100.23;42.23;;;-0.50;99.90;;;;;;5127517;28;20209;-49
2021/12/09 10:15:50;;;;;;;92.97;40.50;;;-0.50;99.90;;;;;;5146728;28;20309;-50
2021/12/09 10:18:42;;;;;;;103.07;44.13;;;-0.50;99.90;;;;;;5127437;28;20519;-49
2021/12/09 10:21:20;;;;;;;106.50;41.57;;;-0.50;99.90;;;;;;5127316;28;20498;-50
2021/12/09 10:24:03;;;;;;;96.57;42.10;;;-0.50;99.90;;;;;;5125214;28;20444;-48
2021/12/09 10:26:47;;;;;;;90.73;40.67;;;-0.60;99.90;;;;;;5109885;28;20804;-48
2021/12/09 10:29:32;;;;;;;89.13;39.77;;;-0.50;99.90;;;;;;5129776;28;21102;-49
2021/12/09 10:32:07;;;;;;;101.03;42.23;;;-0.60;99.90;;;;;;5128612;28;20527;-50
2021/12/09 10:34:43;;;;;;;109.07;41.90;;;-0.70;99.90;;;;;;5134407;28;21894;-54
2021/12/09 10:37:29;;;;;;;94.97;40.67;;;-0.70;99.90;;;;;;5123760;28;20487;-51
2021/12/09 10:40:06;;;;;;;97.80;41.30;;;-0.80;99.90;;;;;;5125295;28;20539;-51
2021/12/09 10:42:39;;;;;;;94.53;40.10;;;-0.80;99.90;;;;;;5136601;28;20444;-51
2021/12/09 10:45:28;;;;;;;95.37;38.90;;;-0.80;99.90;;;;;;5137463;28;20969;-50
2021/12/09 10:48:21;;;;;;;105.13;41.53;;;-0.80;99.90;;;;;;5120748;28;20537;-50
2021/12/09 10:53:51;;;;;;;103.93;41.17;;;-0.70;99.90;;;;;;5122612;28;20440;-50
2021/12/09 10:56:31;;;;;;;113.43;43.10;;;-0.60;99.90;;;;;;5126866;28;20562;-50
2021/12/09 10:59:02;;;;;;;110.47;41.73;;;-0.60;99.90;;;;;;5107623;28;20429;-50
2021/12/09 11:01:34;;;;;;;93.03;43.57;;;-0.60;99.90;;;;;;5124812;28;20446;-49
2021/12/09 11:04:05;;;;;;;95.83;40.10;;;-0.50;99.90;;;;;;5133769;28;20175;-50
2021/12/09 11:06:38;;;;;;;91.93;39.93;;;-0.50;99.90;;;;;;5126422;28;21026;-50
2021/12/09 11:09:12;;;;;;;104.73;42.23;;;-0.60;99.90;;;;;;5126442;28;20174;-51
2021/12/09 11:11:45;;;;;;;86.27;38.67;;;-0.50;99.90;;;;;;5139135;28;20782;-51
2021/12/09 11:14:21;;;;;;;93.57;39.00;;;-0.40;99.90;;;;;;5126111;28;20490;-49
2021/12/09 11:17:03;;;;;;;95.73;40.00;;;-0.40;99.90;;;;;;5126909;28;20472;-49
2021/12/09 11:22:11;;;;;;;90.33;39.37;;;-0.50;99.90;;;;;;5116627;28;21678;-51
2021/12/09 11:24:46;;;;;;;99.70;39.03;;;-0.50;99.90;;;;;;5119615;28;20182;-51
2021/12/09 11:27:22;;;;;;;88.77;38.10;;;-0.40;99.90;;;;;;5129464;28;21040;-50
2021/12/09 11:30:00;;;;;;;79.77;37.63;;;-0.30;99.90;;;;;;5129825;28;20446;-50
2021/12/09 11:32:52;;;;;;;86.07;38.27;;;-0.30;99.90;;;;;;5129370;28;20942;-51
2021/12/09 11:35:30;;;;;;;81.07;38.53;;;-0.20;99.90;;;;;;5118310;28;20469;-51
2021/12/09 11:38:17;;;;;;;79.20;39.30;;;-0.30;99.90;;;;;;5121890;28;20890;-51
2021/12/09 11:40:51;;;;;;;87.57;37.80;;;-0.30;99.90;;;;;;5129650;28;20449;-51
2021/12/09 11:43:24;;;;;;;80.40;36.27;;;-0.30;99.90;;;;;;5123423;28;20476;-51
2021/12/09 11:45:59;;;;;;;83.50;35.13;;;-0.20;99.90;;;;;;5144284;28;20469;-53
2021/12/09 11:48:30;;;;;;;72.37;33.93;;;-0.10;99.90;;;;;;5132307;28;20571;-51
2021/12/09 11:51:01;;;;;;;78.50;36.23;;;0.00;99.90;;;;;;5123124;28;20447;-50
2021/12/09 11:53:37;;;;;;;82.23;36.33;;;0.00;99.90;;;;;;5128943;28;20442;-50
2021/12/09 11:56:21;;;;;;;89.33;38.37;;;-0.10;99.90;;;;;;5123832;28;20303;-51
2021/12/09 12:12:00;;;;;;;84.20;37.40;;;-0.20;99.90;;;;;;5123723;28;20484;-51
2021/12/09 12:14:43;;;;;;;88.30;36.63;;;-0.10;99.90;;;;;;5131784;28;20411;-51
2021/12/09 12:17:23;;;;;;;78.10;35.97;;;0.00;99.90;;;;;;5124853;28;20470;-51
2021/12/09 12:20:10;;;;;;;81.47;35.20;;;-0.10;99.90;;;;;;5151924;23;20503;-50
2021/12/09 12:25:43;;;;;;;76.90;34.60;;;-0.10;99.90;;;;;;5152584;28;20976;-51
2021/12/09 12:32:10;;;;;;;75.93;36.30;;;-0.10;99.90;;;;;;5159466;28;20734;-51
2021/12/09 12:40:44;;;;;;;79.27;35.70;;;-0.30;99.90;;;;;;5152531;28;20465;-52
2021/12/09 12:43:29;;;;;;;92.77;39.53;;;-0.30;99.90;;;;;;5155109;28;20497;-53
2021/12/09 12:49:01;;;;;;;91.70;40.47;;;-0.30;99.90;;;;;;5152579;28;20474;-54
2021/12/09 12:51:46;;;;;;;94.87;41.10;;;-0.30;99.90;;;;;;5138916;28;20837;-54
2021/12/09 12:54:46;;;;;;;88.07;37.53;;;-0.30;99.90;;;;;;5159352;28;20843;-51
2021/12/09 12:57:42;;;;;;;109.40;42.63;;;-0.30;99.90;;;;;;5155630;28;20471;-52
2021/12/09 13:00:29;;;;;;;100.33;38.77;;;-0.30;99.90;;;;;;5155169;28;20458;-52
2021/12/09 13:03:17;;;;;;;84.87;37.03;;;-0.30;99.90;;;;;;5158122;28;20459;-52
2021/12/09 13:06:06;;;;;;;91.30;40.33;;;-0.20;99.90;;;;;;5148816;28;20511;-54
2021/12/09 13:12:00;;;;;;;82.70;39.10;;;0.10;99.90;;;;;;5159619;28;20428;-52
2021/12/09 13:14:34;;;;;;;77.43;37.57;;;0.10;99.90;;;;;;5156644;28;20431;-53
2021/12/09 13:19:55;;;;;;;85.73;37.57;;;0.10;99.90;;;;;;5159088;28;20470;-54
2021/12/09 13:22:36;;;;;;;90.10;38.80;;;0.10;99.90;;;;;;5155780;28;20439;-53
2021/12/09 13:25:26;;;;;;;88.70;37.80;;;0.00;99.90;;;;;;5157255;28;20574;-53
2021/12/09 13:40:04;;;;;;;99.97;40.30;;;-0.10;99.90;;;;;;5113378;28;20490;-52
2021/12/09 13:48:30;;;;;;;91.80;41.20;;;0.00;99.90;;;;;;5154259;28;20472;-52
2021/12/09 13:51:18;;;;;;;116.90;41.00;;;-0.10;99.90;;;;;;5155777;28;20437;-53
2021/12/09 13:54:16;;;;;;;87.03;36.33;;;-0.10;99.90;;;;;;5151063;28;20444;-52
2021/12/09 13:56:53;;;;;;;98.57;39.80;;;0.00;99.90;;;;;;5152372;28;20638;-52